createdAt,value
2022-09-22T21:01:17.444Z,1.30
2022-09-22T21:03:44.758Z,1.17
2022-09-22T21:06:13.103Z,1.25
2022-09-22T21:09:01.015Z,1.30
2022-09-22T21:11:29.032Z,1.58
2022-09-22T21:14:03.733Z,1.60
2022-09-22T21:16:32.226Z,1.35
2022-09-22T21:19:02.299Z,1.73
2022-09-22T21:21:34.727Z,1.77
2022-09-22T21:24:02.041Z,1.90
2022-09-22T21:26:30.322Z,1.75
2022-09-22T21:28:59.481Z,1.80
2022-09-22T21:31:27.216Z,2.20
2022-09-22T21:33:54.363Z,1.60
2022-09-22T21:36:23.462Z,1.50
2022-09-22T21:38:56.284Z,1.77
2022-09-22T21:41:26.187Z,1.50
2022-09-22T21:43:53.693Z,1.65
2022-09-22T21:46:26.387Z,1.77
2022-09-22T21:49:01.765Z,1.50
2022-09-22T21:51:32.194Z,2.13
2022-09-22T21:53:59.024Z,2.40
2022-09-22T21:56:26.096Z,2.10
2022-09-22T21:58:55.177Z,1.90
2022-09-22T22:01:28.196Z,1.88
2022-09-22T22:03:56.942Z,2.50
2022-09-22T22:06:29.588Z,2.35
2022-09-22T22:09:02.461Z,2.38
2022-09-22T22:11:33.683Z,2.40
2022-09-22T22:14:02.761Z,1.98
2022-09-22T22:16:32.555Z,1.90
2022-09-22T22:18:59.625Z,2.50
2022-09-22T22:21:32.133Z,2.40
2022-09-22T22:24:20.187Z,1.90
2022-09-22T22:26:54.742Z,2.10
2022-09-22T22:29:22.873Z,2.30
2022-09-22T22:31:50.419Z,2.13
2022-09-22T22:34:19.598Z,2.30
2022-09-22T22:36:47.050Z,2.40
2022-09-22T22:39:13.901Z,2.63
2022-09-22T22:41:41.447Z,2.88
2022-09-22T22:44:08.880Z,2.10
2022-09-22T22:46:35.935Z,2.53
2022-09-22T22:49:03.074Z,2.50
2022-09-22T22:51:30.351Z,2.72
2022-09-22T22:53:57.239Z,2.92
2022-09-22T22:56:27.191Z,2.63
2022-09-22T22:58:54.300Z,3.10
2022-09-22T23:01:25.095Z,2.85
2022-09-22T23:03:57.715Z,2.30
2022-09-22T23:06:30.486Z,2.90
2022-09-22T23:08:57.455Z,2.42
2022-09-22T23:11:30.231Z,2.72
2022-09-22T23:14:01.980Z,2.80
2022-09-22T23:16:37.350Z,3.03
2022-09-22T23:19:09.372Z,2.00
2022-09-22T23:21:37.093Z,2.50
2022-09-22T23:24:05.443Z,2.50
2022-09-22T23:26:32.517Z,2.10
2022-09-22T23:28:59.575Z,2.95
2022-09-22T23:31:26.907Z,2.40
2022-09-22T23:33:54.235Z,2.95
2022-09-22T23:36:27.023Z,2.83
2022-09-22T23:39:02.664Z,2.67
2022-09-22T23:41:30.743Z,3.13
2022-09-22T23:43:57.780Z,2.33
2022-09-22T23:46:24.862Z,2.45
2022-09-22T23:48:52.293Z,2.97
2022-09-22T23:51:19.651Z,2.53
2022-09-22T23:53:46.604Z,2.13
2022-09-22T23:56:14.156Z,2.58
2022-09-22T23:58:41.027Z,2.70
